| time (UTC) | temp F | wind direction | speed MPH | gust MPH | rain 1hr in | rain 24hr in | rain mn in | humidity % | barometer mb |
| 20260506171525 | 62 | 252 | 2.0 | 9.0 | 0.00 | 0.13 | 0.13 | 86 | 1009.5 |
| 20260506170035 | 62 | 185 | 2.0 | 12.0 | 0.00 | 0.13 | 0.13 | 86 | 1009.7 |
| 20260506164528 | 62 | 199 | 2.0 | 6.0 | 0.01 | 0.13 | 0.13 | 87 | 1009.7 |
| 20260506163024 | 62 | 215 | 2.0 | 8.0 | 0.03 | 0.13 | 0.13 | 87 | 1009.8 |
| 20260506161528 | 62 | 125 | 3.0 | 8.0 | 0.04 | 0.13 | 0.13 | 88 | 1009.3 |
| 20260506160026 | 62 | 174 | 2.0 | 5.0 | 0.06 | 0.13 | 0.13 | 87 | 1009.9 |
| 20260506154529 | 62 | 120 | 2.0 | 8.0 | 0.06 | 0.12 | 0.12 | 87 | 1010.6 |
| 20260506153026 | 62 | 179 | 2.0 | 8.0 | 0.05 | 0.10 | 0.10 | 87 | 1010.6 |
| 20260506151533 | 62 | 217 | 1.0 | 8.0 | 0.07 | 0.09 | 0.09 | 87 | 1010.9 |
| 20260506150011 | 62 | 141 | 0.0 | 9.0 | 0.07 | 0.07 | 0.07 | 86 | 1010.7 |
| 20260506144511 | 62 | 177 | 0.0 | 5.0 | 0.06 | 0.06 | 0.06 | 87 | 1010.7 |
| 20260506143019 | 62 | 144 | 1.0 | 6.0 | 0.05 | 0.05 | 0.05 | 86 | 1010.5 |
| 20260506141516 | 63 | 196 | 1.0 | 6.0 | 0.02 | 0.02 | 0.02 | 84 | 1010.5 |
| 20260506140022 | 63 | 190 | 1.0 | 6.0 | 0.00 | 0.00 | 0.00 | 81 | 1010.6 |
| 20260506134517 | 64 | 140 | 2.0 | 7.0 | 0.00 | 0.00 | 0.00 | 79 | 1010.5 |
| 20260506133035 | 65 | 240 | 1.0 | 4.0 | 0.00 | 0.00 | 0.00 | 79 | 1010.6 |
| 20260506131525 | 64 | 157 | 0.0 | 5.0 | 0.00 | 0.00 | 0.00 | 78 | 1010.7 |
| 20260506130022 | 65 | 155 | 1.0 | 5.0 | 0.00 | 0.00 | 0.00 | 77 | 1010.9 |
| 20260506124520 | 65 | 219 | 2.0 | 6.0 | 0.00 | 0.00 | 0.00 | 76 | 1010.9 |
| 20260506123024 | 66 | 248 | 2.0 | 5.0 | 0.00 | 0.00 | 0.00 | 74 | 1010.9 |
| 20260506121525 | 66 | 244 | 3.0 | 5.0 | 0.00 | 0.00 | 0.00 | 73 | 1010.7 |
| 20260506120034 | 66 | 186 | 3.0 | 6.0 | 0.00 | 0.00 | 0.00 | 72 | 1010.4 |
| 20260506114526 | 66 | 167 | 5.0 | 8.0 | 0.00 | 0.00 | 0.00 | 72 | 1010.6 |
| 20260506113026 | 66 | 225 | 0.0 | 6.0 | 0.00 | 0.00 | 0.00 | 72 | 1010.2 |
| 20260506111506 | 66 | 299 | 1.0 | 7.0 | 0.00 | 0.00 | 0.00 | 72 | 1010.2 |
| 20260506110008 | 66 | 165 | 1.0 | 10.0 | 0.00 | 0.00 | 0.00 | 71 | 1010.3 |
| 20260506104508 | 66 | 226 | 3.0 | 8.0 | 0.00 | 0.00 | 0.00 | 71 | 1009.9 |
| 20260506103008 | 66 | 246 | 0.0 | 8.0 | 0.00 | 0.00 | 0.00 | 71 | 1009.8 |
| 20260506101509 | 66 | 170 | 2.0 | 11.0 | 0.00 | 0.00 | 0.00 | 70 | 1009.8 |
| 20260506100023 | 66 | 229 | 3.0 | 8.0 | 0.00 | 0.00 | 0.00 | 70 | 1009.7 |
| 20260506094516 | 67 | 222 | 3.0 | 10.0 | 0.00 | 0.00 | 0.00 | 70 | 1009.9 |
| 20260506093019 | 67 | 133 | 1.0 | 11.0 | 0.00 | 0.00 | 0.00 | 69 | 1009.7 |
| 20260506091518 | 67 | 202 | 5.0 | 9.0 | 0.00 | 0.00 | 0.00 | 69 | 1009.8 |
| 20260506090020 | 67 | 123 | 4.0 | 9.0 | 0.00 | 0.00 | 0.00 | 68 | 1009.8 |
| 20260506084532 | 67 | 187 | 3.0 | 10.0 | 0.00 | 0.00 | 0.00 | 67 | 1009.8 |
| 20260506083023 | 68 | 219 | 1.0 | 7.0 | 0.00 | 0.00 | 0.00 | 66 | 1009.9 |
| 20260506081526 | 68 | 16 | 1.0 | 7.0 | 0.00 | 0.00 | 0.00 | 66 | 1009.9 |
| 20260506073026 | 68 | 204 | 4.0 | 14.0 | 0.00 | 0.00 | 0.00 | 63 | 1009.8 |
| 20260506071526 | 68 | 246 | 3.0 | 9.0 | 0.00 | 0.00 | 0.00 | 62 | 1010.0 |
| 20260506061526 | 69 | 127 | 3.0 | 11.0 | 0.00 | 0.00 | 0.00 | 57 | 1010.5 |
| 20260506044519 | 70 | 130 | 3.0 | 12.0 | 0.00 | 0.00 | 0.00 | 54 | 1011.1 |
| 20260506043020 | 70 | 75 | 0.0 | 6.0 | 0.00 | 0.00 | 0.00 | 1011.2 | |
| 20260506041517 | 70 | 226 | 3.0 | 8.0 | 0.00 | 0.00 | 0.00 | 1011.3 | |
| 20260506040034 | 70 | 164 | 1.0 | 9.0 | 0.00 | 0.00 | 0.00 | 1011.1 | |
| 20260506034523 | 70 | 205 | 0.0 | 7.0 | 0.00 | 0.00 | 0.00 | 1011.1 | |
| 20260506033022 | 70 | 211 | 2.0 | 5.0 | 0.00 | 0.00 | 0.00 | 1011.1 | |
| 20260506031522 | 70 | 106 | 2.0 | 6.0 | 0.00 | 0.00 | 0.00 | 52 | 1011.0 |
| 20260506030024 | 70 | 159 | 1.0 | 7.0 | 0.00 | 0.00 | 0.00 | 1011.0 | |
| 20260506024528 | 70 | 161 | 1.0 | 5.0 | 0.00 | 0.00 | 0.00 | 51 | 1010.9 |
| 20260506023028 | 71 | 111 | 1.0 | 8.0 | 0.00 | 0.00 | 0.00 | 50 | 1011.0 |
| 20260506021532 | 72 | 186 | 1.0 | 6.0 | 0.00 | 0.00 | 0.00 | 49 | 1011.0 |
| 20260506020004 | 71 | 230 | 4.0 | 11.0 | 0.00 | 0.00 | 0.00 | 49 | 1010.9 |
| 20260506014504 | 71 | 252 | 0.0 | 3.0 | 0.00 | 0.00 | 0.00 | 50 | 1010.8 |
| 20260506013006 | 73 | 194 | 2.0 | 8.0 | 0.00 | 0.00 | 0.00 | 46 | 1010.7 |
| 20260506011507 | 73 | 166 | 0.0 | 7.0 | 0.00 | 0.00 | 0.00 | 44 | 1010.5 |
| 20260506010021 | 74 | 147 | 1.0 | 7.0 | 0.00 | 0.00 | 0.00 | 44 | 1010.4 |
| 20260506004510 | 75 | 134 | 1.0 | 7.0 | 0.00 | 0.00 | 0.00 | 42 | 1010.2 |
| 20260506003011 | 76 | 241 | 3.0 | 11.0 | 0.00 | 0.00 | 0.00 | 41 | 1010.1 |
| 20260506001512 | 75 | 194 | 3.0 | 7.0 | 0.00 | 0.00 | 0.00 | 42 | 1010.0 |
| 20260506000013 | 76 | 177 | 2.0 | 8.0 | 0.00 | 0.00 | 0.00 | 40 | 1009.7 |
| 20260505234531 | 77 | 163 | 3.0 | 12.0 | 0.00 | 0.00 | 0.00 | 40 | 1009.7 |
| 20260505233014 | 77 | 229 | 2.0 | 11.0 | 0.00 | 0.00 | 0.00 | 40 | 1009.4 |
| 20260505231517 | 78 | 178 | 6.0 | 14.0 | 0.00 | 0.00 | 0.00 | 39 | 1009.6 |
| 20260505230020 | 78 | 211 | 8.0 | 13.0 | 0.00 | 0.00 | 0.00 | 39 | 1009.6 |
| 20260505224522 | 78 | 192 | 3.0 | 13.0 | 0.00 | 0.00 | 0.00 | 40 | 1009.5 |
| 20260505223022 | 79 | 234 | 5.0 | 14.0 | 0.00 | 0.00 | 0.00 | 39 | 1009.5 |
| 20260505221524 | 79 | 250 | 6.0 | 13.0 | 0.00 | 0.00 | 0.00 | 38 | 1009.5 |
| 20260505220026 | 80 | 242 | 7.0 | 24.0 | 0.00 | 0.00 | 0.00 | 38 | 1009.5 |
| 20260505214551 | 80 | 222 | 5.0 | 17.0 | 0.00 | 0.00 | 0.00 | 38 | 1009.2 |
| 20260505213026 | 80 | 192 | 7.0 | 17.0 | 0.00 | 0.00 | 0.00 | 38 | 1009.4 |
| 20260505211524 | 81 | 221 | 6.0 | 16.0 | 0.00 | 0.00 | 0.00 | 37 | 1009.0 |
| 20260505210025 | 81 | 194 | 5.0 | 16.0 | 0.00 | 0.00 | 0.00 | 38 | 1009.1 |
| 20260505204508 | 81 | 126 | 6.0 | 14.0 | 0.00 | 0.00 | 0.00 | 36 | 1009.2 |
| 20260505203016 | 80 | 209 | 6.0 | 14.0 | 0.00 | 0.00 | 0.00 | 40 | 1009.3 |
| 20260505201509 | 80 | 217 | 7.0 | 20.0 | 0.00 | 0.00 | 0.00 | 40 | 1009.4 |
| 20260505200009 | 81 | 153 | 7.0 | 17.0 | 0.00 | 0.00 | 0.00 | 38 | 1009.4 |
| 20260505194514 | 81 | 134 | 7.0 | 16.0 | 0.00 | 0.00 | 0.00 | 37 | 1009.5 |
| 20260505193013 | 81 | 211 | 5.0 | 17.0 | 0.00 | 0.00 | 0.00 | 36 | 1009.6 |
| 20260505191515 | 81 | 182 | 10.0 | 23.0 | 0.00 | 0.00 | 0.00 | 37 | 1009.7 |
| 20260505190015 | 81 | 204 | 6.0 | 21.0 | 0.00 | 0.00 | 0.00 | 38 | 1009.8 |
| 20260505184514 | 82 | 194 | 4.0 | 15.0 | 0.00 | 0.00 | 0.00 | 38 | 1010.0 |
| 20260505183018 | 81 | 304 | 6.0 | 18.0 | 0.00 | 0.00 | 0.00 | 38 | 1010.1 |
| 20260505181517 | 81 | 219 | 4.0 | 16.0 | 0.00 | 0.00 | 0.00 | 39 | 1010.1 |
| 20260505180025 | 81 | 219 | 7.0 | 18.0 | 0.00 | 0.00 | 0.00 | 38 | 1010.4 |
| 20260505174537 | 82 | 192 | 5.0 | 13.0 | 0.00 | 0.00 | 0.00 | 39 | 1010.3 |
| 20260505173021 | 82 | 184 | 4.0 | 14.0 | 0.00 | 0.00 | 0.00 | 40 | 1010.6 |